Time;durP1;ratioP1;P1;durP2;ratioP2;P2;SDS_P1;SDS_P2;PMS_P1;PMS_P2;Temp;Humidity;BMP_temperature;BMP_pressure;BME280_temperature;BME280_humidity;BME280_pressure;Samples;Min_cycle;Max_cycle;Signal;HPM_P1;HPM_P2
2021/07/12 00:01:13;;;;;;;2.27;2.13;;;;;;;18.01;97.69;100487.69;5070932;28;20178;-73
2021/07/12 00:03:38;;;;;;;2.27;2.17;;;;;;;17.94;97.79;100482.81;5071258;28;20167;-73
2021/07/12 00:06:04;;;;;;;2.30;2.20;;;;;;;17.85;98.02;100479.44;5070924;28;20202;-74
2021/07/12 00:08:29;;;;;;;2.63;2.47;;;;;;;17.77;98.65;100474.91;5071526;28;20198;-73
2021/07/12 00:10:54;;;;;;;2.27;2.07;;;;;;;17.67;99.00;100479.00;5070694;28;20645;-73
2021/07/12 00:13:20;;;;;;;2.00;1.90;;;;;;;17.65;98.71;100463.91;5071197;28;20170;-73
2021/07/12 00:15:45;;;;;;;2.90;2.70;;;;;;;17.61;98.86;100472.13;5071080;28;20638;-73
2021/07/12 00:18:11;;;;;;;2.77;2.57;;;;;;;17.61;98.79;100476.84;5070856;28;20253;-74
2021/07/12 00:20:37;;;;;;;2.47;2.27;;;;;;;17.57;98.99;100468.47;5070688;28;20186;-73
2021/07/12 00:23:02;;;;;;;2.53;2.43;;;;;;;17.52;99.17;100463.25;5070734;28;20171;-74
2021/07/12 00:25:29;;;;;;;2.40;2.20;;;;;;;17.47;99.57;100467.06;5070525;28;20178;-74
2021/07/12 00:27:55;;;;;;;2.20;2.00;;;;;;;17.43;99.94;100465.38;5070611;28;20175;-73
2021/07/12 00:30:23;;;;;;;2.20;2.03;;;;;;;17.39;99.86;100459.75;5070620;28;20177;-73
2021/07/12 00:32:49;;;;;;;2.20;2.00;;;;;;;17.36;99.96;100466.00;5070280;28;20170;-73
2021/07/12 00:35:15;;;;;;;2.77;2.57;;;;;;;17.35;100.00;100456.09;5070484;28;20260;-73
2021/07/12 00:37:41;;;;;;;2.10;1.93;;;;;;;17.39;99.74;100458.97;5069194;28;20177;-74
2021/07/12 00:40:11;;;;;;;2.17;2.07;;;;;;;17.45;99.47;100463.03;5070405;28;20175;-74
2021/07/12 00:42:37;;;;;;;2.17;2.07;;;;;;;17.46;98.98;100451.63;5070242;28;20170;-74
2021/07/12 00:45:08;;;;;;;2.47;2.30;;;;;;;17.35;99.43;100447.00;5070571;28;20220;-74
2021/07/12 00:47:33;;;;;;;2.43;2.27;;;;;;;17.01;100.00;100445.75;5070243;28;20190;-74
2021/07/12 00:49:59;;;;;;;2.83;2.63;;;;;;;16.99;100.00;100446.13;5070677;28;20170;-74
2021/07/12 00:52:24;;;;;;;2.13;2.03;;;;;;;17.26;100.00;100444.44;5070139;28;20646;-74
2021/07/12 00:54:49;;;;;;;2.73;2.53;;;;;;;17.41;100.00;100440.88;5070310;28;20576;-74
2021/07/12 00:57:15;;;;;;;2.00;1.90;;;;;;;17.39;99.23;100437.66;5070317;28;20177;-74
2021/07/12 00:59:41;;;;;;;2.20;2.10;;;;;;;17.33;99.24;100427.22;5070286;28;20192;-73
2021/07/12 01:02:06;;;;;;;1.70;1.60;;;;;;;17.20;100.00;100429.28;5069960;28;20190;-74
2021/07/12 01:04:32;;;;;;;1.97;1.77;;;;;;;17.18;100.00;100426.06;5069811;28;20174;-74
2021/07/12 01:06:58;;;;;;;2.30;2.03;;;;;;;17.15;100.00;100416.56;5070228;28;20206;-74
2021/07/12 01:09:23;;;;;;;2.97;1.77;;;;;;;17.26;100.00;100419.59;5070433;28;20526;-74
2021/07/12 01:12:04;;;;;;;2.53;2.40;;;;;;;17.32;100.00;100420.09;5069923;28;20650;-74
2021/07/12 01:14:54;;;;;;;2.00;1.90;;;;;;;17.33;100.00;100427.22;5070356;28;20648;-74
2021/07/12 01:17:41;;;;;;;2.00;1.90;;;;;;;17.20;99.23;100413.50;5070240;28;20179;-73
2021/07/12 01:20:35;;;;;;;2.07;1.97;;;;;;;17.09;99.47;100409.72;5070416;28;20500;-74
2021/07/12 01:23:03;;;;;;;2.20;2.10;;;;;;;17.06;99.92;100413.16;5072519;28;20216;-73
2021/07/12 01:26:03;;;;;;;2.03;1.93;;;;;;;16.96;99.53;100408.19;5072628;28;20534;-74
2021/07/12 01:29:02;;;;;;;1.80;1.70;;;;;;;16.72;100.00;100420.16;5074004;28;20597;-73
2021/07/12 01:32:01;;;;;;;1.90;1.80;;;;;;;16.61;100.00;100413.50;5073739;28;20626;-74
2021/07/12 01:34:38;;;;;;;1.90;1.80;;;;;;;16.64;100.00;100413.63;5067227;28;20186;-74
2021/07/12 01:37:28;;;;;;;2.23;2.13;;;;;;;16.69;100.00;100415.34;5073729;28;20185;-73
2021/07/12 01:40:03;;;;;;;2.30;2.10;;;;;;;16.61;100.00;100410.75;5073556;28;20527;-73
2021/07/12 01:42:44;;;;;;;2.20;2.07;;;;;;;16.49;100.00;100402.53;5073503;28;20656;-73
2021/07/12 01:45:13;;;;;;;1.70;1.60;;;;;;;16.46;100.00;100401.28;5073511;28;20170;-74
2021/07/12 01:48:15;;;;;;;2.57;2.40;;;;;;;16.52;100.00;100399.09;5073467;28;20186;-74
2021/07/12 01:50:46;;;;;;;1.83;1.73;;;;;;;16.49;100.00;100399.78;5073367;28;20192;-73
2021/07/12 01:53:11;;;;;;;4.07;1.67;;;;;;;16.43;100.00;100402.00;5073782;28;20178;-73
2021/07/12 01:55:48;;;;;;;2.50;2.30;;;;;;;16.45;100.00;100399.69;5073495;28;20536;-74
2021/07/12 01:58:25;;;;;;;2.13;2.00;;;;;;;16.41;100.00;100396.03;5073728;28;20184;-74
2021/07/12 02:00:53;;;;;;;2.00;1.90;;;;;;;16.31;100.00;100393.78;5073126;28;20182;-73
2021/07/12 02:03:20;;;;;;;1.87;1.73;;;;;;;16.20;100.00;100389.91;5073673;28;20328;-74
2021/07/12 02:05:46;;;;;;;2.23;2.07;;;;;;;16.16;100.00;100384.31;5072729;28;20205;-73
2021/07/12 02:08:17;;;;;;;2.40;2.20;;;;;;;16.05;100.00;100367.44;5073209;28;20194;-73
2021/07/12 02:10:46;;;;;;;1.80;1.70;;;;;;;15.89;100.00;100372.09;5070276;28;20275;-73
2021/07/12 02:13:13;;;;;;;1.97;1.87;;;;;;;15.84;100.00;100377.06;5072850;28;20549;-74
2021/07/12 02:15:39;;;;;;;1.63;1.53;;;;;;;15.78;100.00;100373.75;5072930;28;20177;-74
2021/07/12 02:18:07;;;;;;;2.97;2.20;;;;;;;15.77;100.00;100378.47;5073016;28;20179;-74
2021/07/12 02:20:34;;;;;;;1.70;1.60;;;;;;;15.86;100.00;100372.00;5072948;28;20185;-73
2021/07/12 02:23:01;;;;;;;1.97;1.87;;;;;;;15.99;100.00;100359.78;5072569;28;20182;-74
2021/07/12 02:25:27;;;;;;;2.07;1.97;;;;;;;16.07;100.00;100353.34;5072780;28;20195;-74
2021/07/12 02:27:53;;;;;;;1.93;1.77;;;;;;;16.16;100.00;100348.47;5071390;28;20243;-74
2021/07/12 02:30:19;;;;;;;1.90;1.80;;;;;;;16.23;100.00;100354.19;5072762;28;20175;-74
2021/07/12 02:32:47;;;;;;;1.93;1.83;;;;;;;16.24;100.00;100372.34;5072312;28;20170;-74
2021/07/12 02:35:15;;;;;;;2.13;2.03;;;;;;;16.27;100.00;100381.84;5072683;28;20175;-74
2021/07/12 02:37:42;;;;;;;2.10;2.00;;;;;;;16.35;100.00;100369.88;5072626;28;20181;-74
2021/07/12 02:40:11;;;;;;;1.93;1.83;;;;;;;16.45;100.00;100376.81;5072625;28;20183;-74
2021/07/12 02:42:40;;;;;;;1.90;1.80;;;;;;;16.51;100.00;100395.53;5072396;28;20177;-74
2021/07/12 02:45:07;;;;;;;2.00;1.87;;;;;;;16.53;100.00;100359.34;5072586;28;20167;-74
2021/07/12 02:47:38;;;;;;;1.97;1.87;;;;;;;16.53;100.00;100362.88;5072570;28;20203;-74
2021/07/12 02:50:06;;;;;;;4.43;2.23;;;;;;;16.49;100.00;100355.66;5072495;28;20202;-74
2021/07/12 02:52:48;;;;;;;2.03;1.83;;;;;;;16.47;100.00;100353.25;5072010;28;20193;-74
2021/07/12 02:55:13;;;;;;;2.30;2.20;;;;;;;16.49;100.00;100355.66;5070995;28;20645;-74
2021/07/12 02:57:40;;;;;;;1.53;1.43;;;;;;;16.39;100.00;100356.19;5070912;28;20182;-74
2021/07/12 03:00:08;;;;;;;1.60;1.50;;;;;;;16.26;100.00;100345.22;5072272;28;20174;-74
2021/07/12 03:02:34;;;;;;;2.00;1.90;;;;;;;16.26;100.00;100336.16;5071832;28;20599;-74
2021/07/12 03:04:59;;;;;;;1.93;1.83;;;;;;;16.22;100.00;100338.00;5070823;28;20171;-74
2021/07/12 03:07:29;;;;;;;2.07;1.97;;;;;;;16.15;100.00;100333.09;5071908;28;20210;-74
2021/07/12 03:10:00;;;;;;;1.80;1.70;;;;;;;16.06;100.00;100337.97;5071996;28;20870;-74
2021/07/12 03:12:41;;;;;;;1.77;1.67;;;;;;;15.96;100.00;100364.06;5071966;28;20223;-74
2021/07/12 03:15:10;;;;;;;2.00;1.83;;;;;;;15.84;100.00;100374.31;5072044;28;20170;-74
2021/07/12 03:17:51;;;;;;;1.90;1.80;;;;;;;15.97;100.00;100550.28;5071741;28;20178;-74
2021/07/12 03:20:18;;;;;;;2.10;2.00;;;;;;;16.06;100.00;100473.81;5071829;28;20170;-74
2021/07/12 03:22:53;;;;;;;2.07;1.97;;;;;;;16.10;100.00;100456.56;5071576;28;20174;-74
2021/07/12 03:25:25;;;;;;;3.13;2.93;;;;;;;16.08;100.00;100450.63;5071684;28;20261;-75
2021/07/12 03:27:56;;;;;;;2.10;1.90;;;;;;;15.63;100.00;100424.84;5071747;28;20604;-74
2021/07/12 03:30:22;;;;;;;2.60;2.40;;;;;;;15.56;100.00;100427.34;5071625;28;20202;-74
2021/07/12 03:32:49;;;;;;;2.50;2.30;;;;;;;15.81;100.00;100430.91;5071237;28;20185;-74
2021/07/12 03:35:16;;;;;;;2.43;2.27;;;;;;;15.99;100.00;100421.22;5071670;28;20171;-74
2021/07/12 03:37:42;;;;;;;3.03;2.83;;;;;;;16.16;100.00;100419.34;5071710;28;20547;-74
2021/07/12 03:40:08;;;;;;;2.70;2.50;;;;;;;16.20;100.00;100414.72;5071400;28;20171;-75
2021/07/12 03:42:35;;;;;;;2.67;2.47;;;;;;;16.35;100.00;100408.50;5071161;28;20346;-74
2021/07/12 03:45:02;;;;;;;2.40;2.30;;;;;;;16.47;100.00;100402.09;5070977;28;20236;-74
2021/07/12 03:47:33;;;;;;;2.53;2.33;;;;;;;16.46;100.00;100397.72;5071218;28;20197;-74
2021/07/12 03:50:17;;;;;;;2.10;2.00;;;;;;;16.56;100.00;100395.28;5071113;28;20543;-73
2021/07/12 03:52:47;;;;;;;2.37;2.27;;;;;;;16.62;100.00;100387.53;5070937;28;20179;-74
2021/07/12 03:55:14;;;;;;;2.53;2.40;;;;;;;16.53;100.00;100368.41;5071078;28;20704;-73
2021/07/12 03:57:41;;;;;;;3.13;2.87;;;;;;;16.61;100.00;100369.38;5071106;28;20258;-74
2021/07/12 04:00:08;;;;;;;2.70;2.50;;;;;;;16.49;100.00;100352.91;5071292;28;20182;-74
2021/07/12 04:02:34;;;;;;;2.07;1.97;;;;;;;16.50;100.00;100335.22;5070925;28;20221;-74
2021/07/12 04:04:59;;;;;;;2.63;2.43;;;;;;;16.53;100.00;100329.00;5070868;28;20206;-74
2021/07/12 04:07:25;;;;;;;15.43;2.47;;;;;;;16.63;100.00;100329.25;5069653;28;20202;-74
2021/07/12 04:09:50;;;;;;;2.50;2.30;;;;;;;16.72;100.00;100331.06;5071186;28;20200;-74
2021/07/12 04:12:23;;;;;;;2.90;2.73;;;;;;;16.54;100.00;100314.03;5070721;28;20213;-74
2021/07/12 04:14:51;;;;;;;2.37;2.27;;;;;;;16.49;100.00;100311.53;5070889;28;20198;-74
2021/07/12 04:17:17;;;;;;;2.60;2.47;;;;;;;16.57;100.00;100321.59;5070896;28;20179;-74
2021/07/12 04:19:43;;;;;;;2.60;2.40;;;;;;;16.48;100.00;100319.00;5070803;28;20664;-74
2021/07/12 04:22:08;;;;;;;3.50;3.20;;;;;;;16.41;100.00;100334.56;5070562;28;20178;-75
2021/07/12 04:24:34;;;;;;;3.00;2.80;;;;;;;16.67;100.00;100340.44;5070843;28;20527;-74
2021/07/12 04:26:59;;;;;;;2.87;2.67;;;;;;;16.90;100.00;100349.66;5070897;28;20213;-74
2021/07/12 04:29:24;;;;;;;3.00;2.80;;;;;;;17.02;100.00;100348.00;5070658;28;20174;-74
2021/07/12 04:31:51;;;;;;;2.73;2.53;;;;;;;16.99;100.00;100343.97;5070254;28;20178;-74
2021/07/12 04:34:16;;;;;;;3.57;2.73;;;;;;;17.05;100.00;100457.69;5070690;28;20254;-75
2021/07/12 04:36:41;;;;;;;2.87;2.53;;;;;;;17.04;100.00;100409.16;5069397;28;20265;-78
2021/07/12 04:39:07;;;;;;;2.23;2.13;;;;;;;16.93;100.00;100387.63;5070732;28;20182;-77
2021/07/12 04:41:32;;;;;;;2.40;2.30;;;;;;;16.95;100.00;100385.31;5070640;28;20182;-80
2021/07/12 04:43:58;;;;;;;5.80;2.30;;;;;;;16.92;100.00;100388.78;5070920;28;20227;-77
2021/07/12 04:46:23;;;;;;;3.50;2.33;;;;;;;16.84;100.00;100380.66;5070511;28;20669;-76
2021/07/12 04:48:49;;;;;;;2.30;2.10;;;;;;;16.78;100.00;100371.03;5070733;28;20181;-77
2021/07/12 04:51:15;;;;;;;3.73;2.80;;;;;;;16.69;100.00;100364.91;5070277;28;20181;-77
2021/07/12 04:53:41;;;;;;;2.60;2.37;;;;;;;16.64;100.00;100360.41;5069271;28;20186;-78
2021/07/12 04:56:08;;;;;;;2.27;2.17;;;;;;;16.62;100.00;100366.25;5070654;28;20190;-77
2021/07/12 04:58:35;;;;;;;5.53;2.80;;;;;;;16.60;100.00;100365.81;5074035;28;20622;-78
2021/07/12 05:01:01;;;;;;;2.73;2.53;;;;;;;16.58;100.00;100359.06;5074285;28;20170;-76
2021/07/12 05:03:31;;;;;;;3.30;3.10;;;;;;;16.55;100.00;100371.59;5074709;28;20467;-77
2021/07/12 05:05:56;;;;;;;3.30;3.10;;;;;;;16.59;100.00;100369.75;5074637;28;20230;-77
2021/07/12 05:08:22;;;;;;;3.00;2.80;;;;;;;16.68;100.00;100377.09;5073200;28;20318;-77
2021/07/12 05:10:47;;;;;;;2.40;2.30;;;;;;;16.84;100.00;100380.66;5073197;28;20174;-77
2021/07/12 05:13:12;;;;;;;2.60;2.50;;;;;;;16.98;100.00;100386.53;5081693;28;20206;-77
2021/07/12 05:15:38;;;;;;;2.60;2.50;;;;;;;17.19;100.00;100384.31;5088567;28;20484;-77
2021/07/12 05:18:03;;;;;;;2.87;2.67;;;;;;;17.34;100.00;100384.66;5083499;28;20701;-77
2021/07/12 05:20:29;;;;;;;10.53;2.93;;;;;;;17.41;100.00;100371.03;5076789;28;20229;-78
2021/07/12 05:22:54;;;;;;;3.37;3.07;;;;;;;17.39;100.00;100356.78;5086984;28;20209;-77
2021/07/12 05:25:20;;;;;;;2.80;2.60;;;;;;;17.54;100.00;100350.41;5076867;28;20295;-77
2021/07/12 05:27:45;;;;;;;2.93;2.73;;;;;;;17.62;100.00;100348.59;5083056;28;20210;-79
2021/07/12 05:30:11;;;;;;;3.27;3.07;;;;;;;17.64;100.00;100354.56;5076731;28;20543;-77
2021/07/12 05:32:37;;;;;;;2.97;2.77;;;;;;;17.67;99.70;100359.38;5075809;28;20534;-78
2021/07/12 05:35:04;;;;;;;2.73;2.53;;;;;;;17.84;100.00;100357.03;5085223;28;20177;-78
2021/07/12 05:37:29;;;;;;;3.47;3.23;;;;;;;17.96;100.00;100358.06;5084373;28;20232;-78
2021/07/12 05:39:54;;;;;;;2.67;2.47;;;;;;;18.02;100.00;100360.16;5089447;28;20650;-77
2021/07/12 05:42:20;;;;;;;3.03;2.73;;;;;;;18.17;100.00;100358.47;5072665;28;20189;-78
2021/07/12 05:44:45;;;;;;;3.20;2.70;;;;;;;18.23;99.95;100356.25;5073535;28;20541;-79
2021/07/12 05:47:10;;;;;;;2.97;2.63;;;;;;;18.34;99.79;100357.22;5073536;28;20206;-77
2021/07/12 05:49:36;;;;;;;3.40;3.10;;;;;;;18.41;98.74;100360.94;5073470;28;20177;-78
2021/07/12 05:52:01;;;;;;;1.87;1.77;;;;;;;18.47;96.12;100355.09;5073260;28;20174;-77
2021/07/12 05:54:27;;;;;;;2.57;1.97;;;;;;;18.43;96.13;100355.84;5073812;28;20167;-77
2021/07/12 05:56:52;;;;;;;2.63;1.87;;;;;;;18.39;96.06;100354.97;5072080;28;20336;-77
2021/07/12 05:59:17;;;;;;;1.90;1.80;;;;;;;18.41;97.01;100347.09;5071903;28;20198;-77
2021/07/12 06:01:42;;;;;;;2.20;2.00;;;;;;;18.42;96.97;100340.41;5070465;28;20201;-78
2021/07/12 06:04:08;;;;;;;3.37;2.40;;;;;;;18.48;96.90;100337.31;5070454;28;20182;-80
2021/07/12 06:06:33;;;;;;;7.47;2.73;;;;;;;18.78;98.42;100343.81;5067395;28;20199;-79
2021/07/12 06:08:58;;;;;;;2.10;2.00;;;;;;;18.86;97.78;100339.22;5071500;28;20189;-75
2021/07/12 06:11:24;;;;;;;2.47;2.33;;;;;;;18.94;98.16;100344.50;5067056;28;20175;-76
2021/07/12 06:13:49;;;;;;;2.27;2.07;;;;;;;19.02;97.43;100337.91;5072996;28;20198;-77
2021/07/12 06:16:15;;;;;;;3.13;2.93;;;;;;;19.11;97.07;100339.66;5072983;28;20181;-77
2021/07/12 06:18:41;;;;;;;3.37;2.73;;;;;;;19.16;97.24;100331.81;5072979;28;20251;-75
2021/07/12 06:21:06;;;;;;;3.30;3.10;;;;;;;19.33;97.17;100331.28;5071282;28;20256;-76
2021/07/12 06:23:31;;;;;;;2.40;2.30;;;;;;;19.36;94.77;100317.84;5072670;28;20247;-76
2021/07/12 06:25:57;;;;;;;1.97;1.87;;;;;;;19.28;91.65;100319.72;5072033;28;20198;-75
2021/07/12 06:28:22;;;;;;;2.20;2.10;;;;;;;19.31;91.23;100316.19;5072715;28;20505;-75
2021/07/12 06:30:47;;;;;;;1.80;1.70;;;;;;;19.37;90.29;100311.13;5066411;28;20163;-75
2021/07/12 06:33:13;;;;;;;1.80;1.70;;;;;;;19.42;89.94;100308.06;5067801;28;20602;-74
2021/07/12 06:35:39;;;;;;;1.60;1.50;;;;;;;19.38;89.71;100299.66;5072623;28;20174;-74
2021/07/12 06:38:05;;;;;;;1.50;1.40;;;;;;;19.33;89.50;100298.03;5072804;28;20167;-73
2021/07/12 06:40:30;;;;;;;1.60;1.50;;;;;;;19.36;88.53;100293.69;5072637;28;20541;-74
2021/07/12 06:42:55;;;;;;;1.80;1.70;;;;;;;19.46;89.65;100289.50;5072840;28;20198;-74
2021/07/12 06:45:21;;;;;;;1.90;1.60;;;;;;;19.66;90.42;100284.63;5072406;28;20204;-74
2021/07/12 06:47:47;;;;;;;1.80;1.70;;;;;;;19.84;90.28;100288.44;5072420;28;20206;-74
2021/07/12 06:50:12;;;;;;;1.80;1.70;;;;;;;19.96;91.27;100285.38;5072304;28;20609;-74
2021/07/12 06:52:38;;;;;;;2.30;2.10;;;;;;;20.04;88.78;100284.31;5072156;28;20194;-74
2021/07/12 06:55:03;;;;;;;2.00;1.90;;;;;;;20.09;87.82;100292.28;5072394;28;20528;-74
2021/07/12 06:57:29;;;;;;;2.10;1.50;;;;;;;20.03;87.25;100290.25;5072535;28;20253;-74
2021/07/12 06:59:56;;;;;;;2.00;1.90;;;;;;;20.04;87.29;100289.84;5072318;28;20190;-74
2021/07/12 07:02:21;;;;;;;1.90;1.80;;;;;;;20.19;87.73;100296.34;5069115;28;20610;-74
2021/07/12 07:04:47;;;;;;;1.70;1.60;;;;;;;20.32;88.78;100292.13;5068211;28;20198;-74
2021/07/12 07:07:12;;;;;;;2.20;2.00;;;;;;;20.49;87.71;100293.50;5071831;28;20210;-74
2021/07/12 07:09:38;;;;;;;2.10;2.00;;;;;;;20.57;87.02;100316.59;5070947;28;20194;-74
2021/07/12 07:12:04;;;;;;;1.47;1.37;;;;;;;20.58;85.67;100301.53;5071489;28;20265;-73
2021/07/12 07:14:29;;;;;;;1.53;1.43;;;;;;;20.69;83.81;100285.78;5069325;28;20182;-74
2021/07/12 07:16:54;;;;;;;2.10;1.30;;;;;;;20.72;82.06;100280.25;5071843;28;20190;-73
2021/07/12 07:19:20;;;;;;;1.40;1.30;;;;;;;20.82;81.99;100273.16;5070748;28;20176;-74
2021/07/12 07:21:51;;;;;;;1.50;1.40;;;;;;;20.78;80.70;100283.47;5071624;28;20180;-74
2021/07/12 07:24:17;;;;;;;1.47;1.37;;;;;;;20.91;82.20;100281.97;5072067;28;20159;-74
2021/07/12 07:26:42;;;;;;;2.97;1.60;;;;;;;21.08;81.11;100274.94;5071418;28;20695;-74
2021/07/12 07:29:08;;;;;;;3.67;1.53;;;;;;;21.14;81.38;100267.88;5071468;28;20182;-74
2021/07/12 07:31:34;;;;;;;1.63;1.53;;;;;;;21.17;82.00;100266.28;5071257;28;20616;-74
2021/07/12 07:33:59;;;;;;;1.80;1.70;;;;;;;21.24;82.07;100269.09;5071371;28;20174;-74
2021/07/12 07:36:25;;;;;;;1.83;1.73;;;;;;;21.26;81.21;100266.75;5071461;28;20228;-74
2021/07/12 07:38:50;;;;;;;2.00;1.90;;;;;;;21.09;80.60;100260.66;5071674;28;20171;-74
2021/07/12 07:41:18;;;;;;;2.70;2.10;;;;;;;21.25;81.62;100267.94;5071243;28;20555;-74
2021/07/12 07:43:44;;;;;;;2.67;2.43;;;;;;;21.39;80.56;100268.81;5071394;28;20171;-74
2021/07/12 07:46:09;;;;;;;2.00;1.90;;;;;;;21.37;80.30;100264.84;5071386;28;20209;-74
2021/07/12 07:48:34;;;;;;;1.73;1.63;;;;;;;21.48;79.42;100265.69;5070451;28;20268;-74
2021/07/12 07:51:00;;;;;;;2.50;2.30;;;;;;;21.48;80.02;100262.91;5070933;28;20206;-74
2021/07/12 07:53:25;;;;;;;2.83;2.63;;;;;;;21.59;80.57;100260.19;5071127;28;20258;-74
2021/07/12 07:55:51;;;;;;;2.50;2.30;;;;;;;21.67;80.31;100257.03;5071099;28;20182;-74
2021/07/12 07:58:16;;;;;;;2.17;1.90;;;;;;;21.77;79.60;100251.91;5070936;28;20262;-74
2021/07/12 08:00:42;;;;;;;4.50;2.20;;;;;;;21.66;78.91;100251.88;5070882;28;20661;-74
2021/07/12 08:03:07;;;;;;;2.40;2.27;;;;;;;21.72;78.35;100261.44;5070696;28;20198;-74
2021/07/12 08:05:33;;;;;;;1.90;1.80;;;;;;;21.90;79.61;100258.72;5061630;28;20180;-74
2021/07/12 08:08:00;;;;;;;2.80;2.00;;;;;;;22.03;78.88;100261.94;5071135;28;20198;-75
2021/07/12 08:10:26;;;;;;;3.23;2.07;;;;;;;22.15;79.40;100253.25;5070958;28;20705;-74
2021/07/12 08:12:51;;;;;;;2.67;2.20;;;;;;;22.24;79.36;100248.09;5070914;28;20262;-74
2021/07/12 08:15:18;;;;;;;1.90;1.80;;;;;;;22.39;78.77;100251.69;5070228;28;20556;-75
2021/07/12 08:17:46;;;;;;;1.70;1.60;;;;;;;22.30;75.17;100249.31;5067638;28;20186;-75
2021/07/12 08:20:13;;;;;;;2.10;2.00;;;;;;;22.41;75.52;100247.31;5070626;28;20186;-74
2021/07/12 08:22:39;;;;;;;2.73;2.57;;;;;;;21.92;75.99;100240.44;5070737;28;20882;-74
2021/07/12 08:25:07;;;;;;;2.30;2.20;;;;;;;22.06;77.61;100241.69;5070852;28;20171;-74
2021/07/12 08:27:34;;;;;;;2.17;2.07;;;;;;;22.13;76.70;100233.34;5070428;28;20210;-75
2021/07/12 08:29:59;;;;;;;2.77;2.63;;;;;;;22.39;77.55;100322.06;5068451;28;20649;-74
2021/07/12 08:32:25;;;;;;;2.43;2.33;;;;;;;22.19;75.86;100273.53;5070224;28;20316;-75
2021/07/12 08:34:50;;;;;;;2.13;2.03;;;;;;;22.34;74.98;100236.19;5068841;28;20185;-74
2021/07/12 08:37:16;;;;;;;2.67;2.47;;;;;;;22.60;76.95;100234.22;5070663;28;20177;-74
2021/07/12 08:39:41;;;;;;;2.70;2.53;;;;;;;22.70;76.01;100241.75;5070441;28;20624;-74
2021/07/12 08:42:10;;;;;;;2.33;2.13;;;;;;;22.84;75.00;100245.34;5068925;28;20262;-74
2021/07/12 08:44:36;;;;;;;2.83;2.63;;;;;;;22.76;74.37;100243.75;5070791;28;20266;-74
2021/07/12 08:47:01;;;;;;;2.67;2.57;;;;;;;22.30;75.68;100243.75;5070383;28;20416;-74
2021/07/12 08:49:27;;;;;;;2.53;2.43;;;;;;;22.13;75.89;100239.75;5070334;28;20241;-75
2021/07/12 08:51:52;;;;;;;2.60;2.50;;;;;;;22.38;76.91;100233.38;5070339;28;20579;-74
2021/07/12 08:54:18;;;;;;;2.80;2.60;;;;;;;22.50;77.17;100233.00;5070754;28;20246;-74
2021/07/12 08:56:44;;;;;;;2.57;2.47;;;;;;;22.44;76.59;100231.81;5070289;28;20254;-74
2021/07/12 08:59:30;;;;;;;2.50;2.40;;;;;;;22.25;75.97;100227.41;5068856;28;20269;-74
2021/07/12 09:02:05;;;;;;;3.20;2.90;;;;;;;22.45;77.23;100222.28;5069987;28;20708;-75
2021/07/12 09:04:31;;;;;;;2.43;2.33;;;;;;;22.56;77.63;100232.19;5070249;28;20248;-74
2021/07/12 09:07:05;;;;;;;2.87;2.67;;;;;;;22.71;76.14;100224.66;5070088;28;20296;-75
2021/07/12 09:09:31;;;;;;;3.13;2.93;;;;;;;22.89;75.83;100212.72;5070188;28;20205;-74
2021/07/12 09:12:08;;;;;;;2.77;2.63;;;;;;;22.85;75.30;100219.06;5069904;28;20226;-74
2021/07/12 09:14:39;;;;;;;2.70;2.60;;;;;;;22.92;75.46;100220.28;5070187;28;20178;-74
2021/07/12 09:17:05;;;;;;;3.00;2.80;;;;;;;22.67;75.39;100209.91;5070565;28;20163;-74
2021/07/12 09:19:33;;;;;;;2.57;2.47;;;;;;;22.55;75.00;100205.53;5069769;28;20181;-74
2021/07/12 09:22:10;;;;;;;3.10;2.77;;;;;;;22.70;74.52;100205.53;5070181;28;20171;-74
2021/07/12 09:24:54;;;;;;;2.97;2.77;;;;;;;22.81;74.57;100203.53;5069999;28;20311;-74
2021/07/12 09:27:24;;;;;;;3.03;2.73;;;;;;;22.97;73.60;100211.50;5070096;28;20205;-74
2021/07/12 09:29:52;;;;;;;3.37;3.07;;;;;;;23.17;75.50;100209.06;5069838;28;20223;-74
2021/07/12 09:32:20;;;;;;;4.77;3.13;;;;;;;23.15;71.99;100207.50;5069579;28;20175;-74
2021/07/12 09:34:47;;;;;;;2.90;2.70;;;;;;;22.78;74.09;100198.78;5069908;28;20179;-73
2021/07/12 09:37:22;;;;;;;3.33;3.13;;;;;;;22.63;72.33;100195.22;5069893;28;20638;-75
2021/07/12 09:39:49;;;;;;;3.37;3.17;;;;;;;22.75;72.68;100194.00;5069845;28;20238;-74
2021/07/12 09:42:39;;;;;;;4.07;3.80;;;;;;;23.00;73.77;100191.19;5069468;28;20258;-74
2021/07/12 09:45:06;;;;;;;3.93;3.63;;;;;;;23.09;72.04;100181.22;5073555;28;20468;-74
2021/07/12 09:47:34;;;;;;;4.43;4.13;;;;;;;23.47;73.71;100180.69;5073530;28;20228;-74
2021/07/12 09:50:10;;;;;;;4.10;3.80;;;;;;;23.65;71.21;100178.63;5073513;28;20176;-74
2021/07/12 09:52:40;;;;;;;6.90;4.13;;;;;;;23.23;72.39;100165.63;5073196;28;20239;-74
2021/07/12 09:55:06;;;;;;;3.63;3.33;;;;;;;23.21;71.73;100170.81;5073435;28;20177;-74
2021/07/12 09:57:33;;;;;;;4.93;4.47;;;;;;;23.48;72.02;100171.13;5073445;28;20173;-74
2021/07/12 10:00:09;;;;;;;4.30;3.97;;;;;;;23.81;72.18;100166.97;5073351;28;20274;-74
2021/07/12 10:02:42;;;;;;;3.70;3.50;;;;;;;23.98;69.13;100172.44;5072802;28;20589;-74
2021/07/12 10:05:15;;;;;;;7.13;3.93;;;;;;;23.85;70.02;100170.53;5072088;28;20193;-74
2021/07/12 10:07:41;;;;;;;4.07;3.83;;;;;;;23.89;70.22;100166.53;5065365;28;20311;-74
2021/07/12 10:10:13;;;;;;;3.63;3.37;;;;;;;23.48;69.22;100165.53;5060897;28;20325;-74
2021/07/12 10:12:41;;;;;;;4.00;3.70;;;;;;;23.55;71.00;100157.91;5061714;28;20183;-73
2021/07/12 10:15:07;;;;;;;4.47;4.07;;;;;;;23.48;70.70;100148.81;5059331;28;20182;-73
2021/07/12 10:17:33;;;;;;;3.93;3.73;;;;;;;23.03;71.70;100146.59;5069518;28;20639;-73
2021/07/12 10:19:58;;;;;;;4.40;4.10;;;;;;;23.36;71.35;100144.47;5073021;28;20194;-73
2021/07/12 10:22:25;;;;;;;3.73;3.53;;;;;;;23.35;70.50;100143.69;5072964;28;20296;-73
2021/07/12 10:24:51;;;;;;;4.87;4.57;;;;;;;23.38;69.61;100133.72;5072706;28;20655;-74
2021/07/12 10:27:25;;;;;;;4.30;4.07;;;;;;;23.12;70.29;100132.22;5072870;28;20200;-74
2021/07/12 10:29:52;;;;;;;4.70;4.30;;;;;;;23.26;72.42;100131.38;5053104;28;20226;-75
2021/07/12 10:32:20;;;;;;;4.17;3.77;;;;;;;23.31;69.73;100133.75;5071099;28;20537;-74
2021/07/12 10:34:52;;;;;;;4.77;4.37;;;;;;;23.33;70.74;100131.34;5073075;28;20194;-74
2021/07/12 10:37:38;;;;;;;5.10;4.80;;;;;;;23.32;70.83;100132.56;5069782;28;20182;-73
2021/07/12 10:40:10;;;;;;;4.47;4.17;;;;;;;23.64;71.25;100141.56;5072673;28;20225;-74
2021/07/12 10:42:42;;;;;;;4.77;4.37;;;;;;;23.48;69.97;100963.19;5071305;28;20194;-74
2021/07/12 10:45:33;;;;;;;6.07;5.57;;;;;;;23.11;70.72;100379.50;5072725;28;20167;-74
2021/07/12 10:47:58;;;;;;;5.40;5.00;;;;;;;23.28;71.04;100332.47;5072577;28;20201;-75
2021/07/12 10:50:38;;;;;;;5.77;5.37;;;;;;;23.36;72.44;100322.94;5072146;28;20177;-75
2021/07/12 10:53:15;;;;;;;5.67;5.27;;;;;;;23.45;70.70;100314.94;5070894;28;20265;-75
2021/07/12 10:55:42;;;;;;;5.70;5.30;;;;;;;23.56;70.67;100301.75;5071383;28;20223;-75
2021/07/12 10:58:29;;;;;;;6.07;5.57;;;;;;;23.51;70.28;100296.59;5072612;28;20227;-75
2021/07/12 11:00:58;;;;;;;5.63;5.23;;;;;;;23.45;70.87;100278.69;5077017;28;20155;-75
2021/07/12 11:03:35;;;;;;;5.53;5.13;;;;;;;23.47;71.75;100269.94;5080420;28;20175;-75
2021/07/12 11:06:07;;;;;;;6.17;5.77;;;;;;;23.48;73.39;100277.09;5072698;28;20228;-75
2021/07/12 11:08:45;;;;;;;4.27;3.97;;;;;;;23.21;74.96;100274.75;5072787;28;20285;-74
2021/07/12 11:11:20;;;;;;;4.30;4.00;;;;;;;22.96;75.85;100269.22;5070714;28;20641;-75
2021/07/12 11:13:54;;;;;;;4.60;4.30;;;;;;;22.93;76.81;100267.25;5069200;28;20174;-75
2021/07/12 11:16:25;;;;;;;3.80;3.60;;;;;;;22.95;76.54;100253.69;5072093;28;20182;-75
2021/07/12 11:18:53;;;;;;;3.50;3.30;;;;;;;22.78;76.04;100246.13;5060431;28;20179;-75
2021/07/12 11:21:34;;;;;;;2.57;2.47;;;;;;;22.41;75.86;100250.09;5072534;28;20175;-74
2021/07/12 11:24:11;;;;;;;3.37;3.17;;;;;;;22.08;78.42;100259.59;5072057;28;20228;-75
2021/07/12 11:26:42;;;;;;;3.10;2.90;;;;;;;21.91;79.63;100247.19;5071953;28;20193;-75
2021/07/12 11:29:14;;;;;;;3.83;3.50;;;;;;;21.91;80.88;100247.19;5071953;28;20174;-75